Shelbyville, Tennessee
Current Conditions -  °F | °C
As of 6:15 PM on Wednesday 28 Jan 2015 (Local Time) from KSYI Reporting Station
Clear Clear  
Wind Chill: 41°   Ceiling: Unl
Heat Index: 41°   Visibility: 10mi
Dew Point: 28°   Wind: 0mph
Humidity: 61%   Direction: NA
Pressure: 30.22"   Gusts: NA
Location:  35.48°N, 86.46°W
Report Text: KSYI 290015Z AUTO 00000KT 10SM CLR 05/M02 A3022 RMK
Loading
Personal Weather Stations






























Interactive Weather Map New forecast layout! Learn more

10-Day Weather Forecast

Advertisements
Track Severe Weather on mobile